| time (UTC) | temp F | wind direction | speed MPH | gust MPH | rain 1hr in | rain 24hr in | rain mn in | humidity % | barometer mb |
| 20260906060957 | 72 | 302 | 0.0 | 0.0 | 0.00 | 0.00 | 0.00 | 64 | 1022.1 |
| 20260906060759 | 72 | 302 | 0.0 | 0.0 | 0.00 | 0.00 | 0.00 | 64 | 1022.1 |
| 20260906055957 | 71 | 300 | 0.0 | 0.0 | 0.00 | 0.00 | 0.00 | 68 | 1022.0 |
| 20260906055457 | 70 | 300 | 0.0 | 0.0 | 0.00 | 0.00 | 0.00 | 69 | 1022.0 |
| 20260906054958 | 69 | 300 | 0.0 | 0.0 | 0.00 | 0.00 | 0.00 | 69 | 1021.8 |
| 20260906054456 | 68 | 300 | 0.0 | 0.0 | 0.00 | 0.00 | 0.00 | 70 | 1022.0 |
| 20260906053956 | 68 | 309 | 0.0 | 0.0 | 0.00 | 0.00 | 0.00 | 72 | 1021.8 |
| 20260906053456 | 67 | 309 | 0.0 | 0.0 | 0.00 | 0.00 | 0.00 | 71 | 1022.0 |
| 20260906052957 | 66 | 310 | 0.0 | 2.0 | 0.00 | 0.00 | 0.00 | 72 | 1021.8 |
| 20260906052456 | 65 | 310 | 0.0 | 2.0 | 0.00 | 0.00 | 0.00 | 73 | 1021.8 |
| 20260906051956 | 65 | 310 | 1.0 | 1.0 | 0.00 | 0.00 | 0.00 | 73 | 1021.8 |
| 20260906051456 | 64 | 310 | 0.0 | 3.0 | 0.00 | 0.00 | 0.00 | 74 | 1021.8 |
| 20260906050953 | 65 | 310 | 0.0 | 3.0 | 0.00 | 0.00 | 0.00 | 74 | 1021.8 |
| 20260906050454 | 64 | 310 | 0.0 | 2.0 | 0.00 | 0.00 | 0.00 | 75 | 1021.8 |
| 20260906045954 | 64 | 310 | 0.0 | 0.0 | 0.00 | 0.00 | 0.00 | 74 | 1021.6 |
| 20260906045452 | 64 | 310 | 0.0 | 0.0 | 0.00 | 0.00 | 0.00 | 74 | 1021.6 |
| 20260906044951 | 64 | 310 | 0.0 | 2.0 | 0.00 | 0.00 | 0.00 | 74 | 1021.6 |
| 20260906044451 | 65 | 310 | 0.0 | 4.0 | 0.00 | 0.00 | 0.00 | 73 | 1021.6 |
| 20260906043949 | 65 | 310 | 1.0 | 4.0 | 0.00 | 0.00 | 0.00 | 72 | 1021.6 |
| 20260906043449 | 66 | 258 | 0.0 | 0.0 | 0.00 | 0.00 | 0.00 | 71 | 1021.5 |
| 20260906042949 | 66 | 258 | 0.0 | 0.0 | 0.00 | 0.00 | 0.00 | 71 | 1021.5 |
| 20260906042447 | 66 | 258 | 0.0 | 2.0 | 0.00 | 0.00 | 0.00 | 71 | 1021.4 |
| 20260906042256 | 66 | 258 | 0.0 | 2.0 | 0.00 | 0.00 | 0.00 | 71 | 1021.4 |
| 20260906041751 | 66 | 258 | 0.0 | 2.0 | 0.00 | 0.00 | 0.00 | 70 | 1021.4 |
| 20260906040946 | 66 | 258 | 0.0 | 3.0 | 0.00 | 0.00 | 0.00 | 69 | 1021.4 |
| 20260906040445 | 67 | 258 | 0.0 | 3.0 | 0.00 | 0.00 | 0.00 | 68 | 1021.4 |
| 20260906040254 | 68 | 258 | 0.0 | 4.0 | 0.00 | 0.00 | 0.00 | 68 | 1021.3 |
| 20260906035443 | 68 | 258 | 0.0 | 4.0 | 0.00 | 0.00 | 0.00 | 67 | 1021.3 |
| 20260906035251 | 68 | 258 | 2.0 | 3.0 | 0.00 | 0.00 | 0.00 | 68 | 1021.2 |
| 20260906034444 | 67 | 258 | 1.0 | 3.0 | 0.00 | 0.00 | 0.00 | 69 | 1021.3 |
| 20260906033941 | 67 | 258 | 0.0 | 3.0 | 0.00 | 0.00 | 0.00 | 71 | 1021.3 |
| 20260906033443 | 66 | 258 | 2.0 | 3.0 | 0.00 | 0.00 | 0.00 | 73 | 1021.3 |
| 20260906032942 | 66 | 258 | 2.0 | 3.0 | 0.00 | 0.00 | 0.00 | 75 | 1021.3 |
| 20260906032440 | 66 | 258 | 0.0 | 0.0 | 0.00 | 0.00 | 0.00 | 76 | 1021.3 |
| 20260906031940 | 66 | 258 | 0.0 | 0.0 | 0.00 | 0.00 | 0.00 | 76 | 1021.4 |
| 20260906031439 | 66 | 258 | 0.0 | 0.0 | 0.00 | 0.00 | 0.00 | 76 | 1021.4 |
| 20260906031250 | 66 | 258 | 0.0 | 0.0 | 0.00 | 0.00 | 0.00 | 76 | 1021.4 |
| 20260906030437 | 66 | 258 | 0.0 | 0.0 | 0.00 | 0.00 | 0.00 | 76 | 1021.4 |
| 20260906025937 | 67 | 258 | 0.0 | 0.0 | 0.00 | 0.00 | 0.00 | 75 | 1021.4 |
| 20260906025436 | 67 | 258 | 0.0 | 0.0 | 0.00 | 0.00 | 0.00 | 74 | 1021.4 |
| 20260906024938 | 67 | 258 | 0.0 | 0.0 | 0.00 | 0.00 | 0.00 | 74 | 1021.4 |
| 20260906024436 | 67 | 258 | 0.0 | 0.0 | 0.00 | 0.00 | 0.00 | 74 | 1021.4 |
| 20260906023934 | 67 | 258 | 0.0 | 0.0 | 0.00 | 0.00 | 0.00 | 75 | 1021.5 |
| 20260906023433 | 67 | 258 | 0.0 | 0.0 | 0.00 | 0.00 | 0.00 | 74 | 1021.5 |
| 20260906022933 | 67 | 258 | 0.0 | 0.0 | 0.00 | 0.00 | 0.00 | 74 | 1021.5 |
| 20260906022432 | 67 | 258 | 0.0 | 0.0 | 0.00 | 0.00 | 0.00 | 75 | 1021.5 |
| 20260906022237 | 67 | 258 | 0.0 | 2.0 | 0.00 | 0.00 | 0.00 | 75 | 1021.4 |
| 20260906021431 | 67 | 258 | 0.0 | 2.0 | 0.00 | 0.00 | 0.00 | 75 | 1021.5 |
| 20260906020934 | 68 | 258 | 0.0 | 2.0 | 0.00 | 0.00 | 0.00 | 74 | 1021.5 |
| 20260906020433 | 69 | 258 | 0.0 | 3.0 | 0.00 | 0.00 | 0.00 | 74 | 1021.6 |
| 20260906015932 | 70 | 258 | 1.0 | 3.0 | 0.00 | 0.00 | 0.00 | 74 | 1021.6 |
| 20260906015432 | 69 | 258 | 2.0 | 3.0 | 0.00 | 0.00 | 0.00 | 74 | 1021.6 |
| 20260906014933 | 69 | 258 | 2.0 | 3.0 | 0.00 | 0.00 | 0.00 | 74 | 1021.6 |
| 20260906014433 | 69 | 254 | 2.0 | 3.0 | 0.00 | 0.00 | 0.00 | 74 | 1021.6 |
| 20260906013933 | 69 | 254 | 2.0 | 3.0 | 0.00 | 0.00 | 0.00 | 73 | 1021.6 |
| 20260906013433 | 68 | 289 | 0.0 | 2.0 | 0.00 | 0.00 | 0.00 | 72 | 1021.6 |
| 20260906013233 | 68 | 289 | 0.0 | 2.0 | 0.00 | 0.00 | 0.00 | 70 | 1021.6 |
| 20260906012433 | 68 | 289 | 1.0 | 4.0 | 0.00 | 0.00 | 0.00 | 70 | 1021.6 |
| 20260906012050 | 69 | 80 | 0.0 | 1.0 | 0.00 | 0.00 | 0.00 | 69 | 1021.6 |
| 20260906012018 | 68 | 289 | 2.0 | 4.0 | 0.00 | 0.00 | 0.00 | 69 | 1021.5 |
| 20260906010933 | 70 | 80 | 0.0 | 2.0 | 0.00 | 0.00 | 0.00 | 68 | 1021.5 |
| 20260906010432 | 70 | 80 | 0.0 | 3.0 | 0.00 | 0.00 | 0.00 | 67 | 1021.5 |
| 20260906010236 | 70 | 80 | 1.0 | 3.0 | 0.00 | 0.00 | 0.00 | 66 | 1021.6 |
| 20260906005433 | 71 | 80 | 2.0 | 5.0 | 0.00 | 0.00 | 0.00 | 63 | 1021.6 |
| 20260906005236 | 72 | 261 | 2.0 | 5.0 | 0.00 | 0.00 | 0.00 | 68 | 1021.5 |
| 20260906004433 | 73 | 243 | 2.0 | 5.0 | 0.00 | 0.00 | 0.00 | 66 | 1021.5 |
| 20260906003932 | 73 | 257 | 3.0 | 5.0 | 0.00 | 0.00 | 0.00 | 63 | 1021.6 |
| 20260906003432 | 72 | 258 | 3.0 | 5.0 | 0.00 | 0.00 | 0.00 | 63 | 1021.5 |
| 20260906002934 | 72 | 0 | 0.0 | 3.0 | 0.00 | 0.00 | 0.00 | 60 | 1021.4 |
| 20260906002739 | 73 | 0 | 2.0 | 6.0 | 0.00 | 0.00 | 0.00 | 57 | 1021.5 |
| 20260906001933 | 74 | 0 | 1.0 | 10.0 | 0.00 | 0.00 | 0.00 | 56 | 1021.5 |
| 20260906001747 | 74 | 226 | 4.0 | 10.0 | 0.00 | 0.00 | 0.00 | 54 | 1021.3 |
| 20260906000936 | 73 | 220 | 4.0 | 7.0 | 0.00 | 0.00 | 0.00 | 53 | 1021.4 |
| 20260906000737 | 73 | 248 | 5.0 | 9.0 | 0.00 | 0.00 | 0.00 | 55 | 1021.3 |
| 20260905235933 | 72 | 243 | 3.0 | 9.0 | 0.00 | 0.00 | 0.00 | 58 | 1021.4 |
| 20260905235433 | 70 | 245 | 2.0 | 5.0 | 0.00 | 0.00 | 0.00 | 63 | 1021.4 |
| 20260905234932 | 70 | 337 | 0.0 | 2.0 | 0.00 | 0.00 | 0.00 | 65 | 1021.5 |
| 20260905234434 | 70 | 337 | 0.0 | 4.0 | 0.00 | 0.00 | 0.00 | 64 | 1021.4 |
| 20260905233934 | 70 | 337 | 2.0 | 4.0 | 0.00 | 0.00 | 0.00 | 64 | 1021.5 |
| 20260905233432 | 71 | 299 | 1.0 | 4.0 | 0.00 | 0.00 | 0.00 | 64 | 1021.5 |
| 20260905233239 | 71 | 333 | 2.0 | 6.0 | 0.00 | 0.00 | 0.00 | 65 | 1021.6 |
| 20260905232432 | 71 | 234 | 2.0 | 6.0 | 0.00 | 0.00 | 0.00 | 65 | 1021.5 |
| 20260905232235 | 71 | 333 | 0.0 | 5.0 | 0.00 | 0.00 | 0.00 | 69 | 1021.5 |
| 20260905231735 | 71 | 333 | 1.0 | 5.0 | 0.00 | 0.00 | 0.00 | 69 | 1021.5 |
| 20260905230933 | 71 | 358 | 2.0 | 4.0 | 0.00 | 0.00 | 0.00 | 68 | 1021.5 |
| 20260905230734 | 71 | 358 | 3.0 | 4.0 | 0.00 | 0.00 | 0.00 | 66 | 1021.6 |
| 20260905225933 | 72 | 51 | 1.0 | 4.0 | 0.00 | 0.00 | 0.00 | 65 | 1021.6 |
| 20260905225433 | 73 | 51 | 0.0 | 7.0 | 0.00 | 0.00 | 0.00 | 65 | 1021.5 |
| 20260905224936 | 74 | 250 | 3.0 | 11.0 | 0.00 | 0.00 | 0.00 | 67 | 1021.6 |
| 20260905224432 | 74 | 261 | 6.0 | 11.0 | 0.00 | 0.00 | 0.00 | 67 | 1021.6 |
| 20260905223933 | 74 | 244 | 7.0 | 12.0 | 0.00 | 0.00 | 0.00 | 64 | 1021.5 |
| 20260905223435 | 73 | 271 | 7.0 | 12.0 | 0.00 | 0.00 | 0.00 | 64 | 1021.6 |
| 20260905222933 | 73 | 279 | 7.0 | 11.0 | 0.00 | 0.00 | 0.00 | 64 | 1021.6 |
| 20260905222431 | 73 | 251 | 5.0 | 9.0 | 0.00 | 0.00 | 0.00 | 64 | 1021.6 |
| 20260905222241 | 73 | 257 | 4.0 | 6.0 | 0.00 | 0.00 | 0.00 | 66 | 1021.5 |
| 20260905221432 | 73 | 254 | 1.0 | 4.0 | 0.00 | 0.00 | 0.00 | 67 | 1021.6 |
| 20260905220936 | 73 | 289 | 1.0 | 6.0 | 0.00 | 0.00 | 0.00 | 67 | 1021.6 |
| 20260905220432 | 73 | 283 | 2.0 | 7.0 | 0.00 | 0.00 | 0.00 | 67 | 1021.5 |
| 20260905215933 | 74 | 245 | 4.0 | 7.0 | 0.00 | 0.00 | 0.00 | 67 | 1021.4 |
| 20260905215432 | 74 | 244 | 4.0 | 7.0 | 0.00 | 0.00 | 0.00 | 67 | 1021.4 |
| 20260905214934 | 74 | 240 | 5.0 | 7.0 | 0.00 | 0.00 | 0.00 | 68 | 1021.4 |
| 20260905214736 | 73 | 210 | 4.0 | 9.0 | 0.00 | 0.00 | 0.00 | 68 | 1021.4 |
| 20260905213932 | 73 | 238 | 5.0 | 9.0 | 0.00 | 0.00 | 0.00 | 70 | 1021.4 |
| 20260905213735 | 74 | 238 | 5.0 | 9.0 | 0.00 | 0.00 | 0.00 | 72 | 1021.5 |
| 20260905212936 | 74 | 244 | 4.0 | 11.0 | 0.00 | 0.00 | 0.00 | 71 | 1021.5 |
| 20260905212434 | 74 | 213 | 6.0 | 11.0 | 0.00 | 0.00 | 0.00 | 72 | 1021.5 |
| 20260905211932 | 74 | 202 | 6.0 | 7.0 | 0.00 | 0.00 | 0.00 | 71 | 1021.6 |
| 20260905211432 | 74 | 220 | 5.0 | 7.0 | 0.00 | 0.00 | 0.00 | 71 | 1021.6 |
| 20260905210934 | 74 | 243 | 3.0 | 10.0 | 0.00 | 0.00 | 0.00 | 73 | 1021.6 |
| 20260905210432 | 74 | 255 | 5.0 | 10.0 | 0.00 | 0.00 | 0.00 | 73 | 1021.6 |
| 20260905205933 | 74 | 238 | 6.0 | 7.0 | 0.00 | 0.00 | 0.00 | 73 | 1021.6 |
| 20260905205434 | 73 | 228 | 4.0 | 7.0 | 0.00 | 0.00 | 0.00 | 73 | 1021.6 |
| 20260905205234 | 73 | 224 | 4.0 | 9.0 | 0.00 | 0.00 | 0.00 | 74 | 1021.6 |
| 20260905204432 | 74 | 251 | 4.0 | 9.0 | 0.00 | 0.00 | 0.00 | 75 | 1021.6 |
| 20260905203931 | 74 | 254 | 4.0 | 10.0 | 0.00 | 0.00 | 0.00 | 74 | 1021.6 |
| 20260905203430 | 74 | 250 | 4.0 | 10.0 | 0.00 | 0.00 | 0.00 | 74 | 1021.6 |
| 20260905202931 | 74 | 252 | 4.0 | 9.0 | 0.00 | 0.00 | 0.00 | 74 | 1021.6 |
| 20260905202429 | 74 | 241 | 4.0 | 9.0 | 0.00 | 0.00 | 0.00 | 74 | 1021.6 |
| 20260905201928 | 74 | 248 | 5.0 | 10.0 | 0.00 | 0.00 | 0.00 | 74 | 1021.5 |
| 20260905201428 | 74 | 268 | 5.0 | 10.0 | 0.00 | 0.00 | 0.00 | 73 | 1021.5 |
| 20260905200929 | 74 | 241 | 5.0 | 7.0 | 0.00 | 0.00 | 0.00 | 72 | 1021.5 |
| 20260905200732 | 75 | 240 | 4.0 | 7.0 | 0.00 | 0.00 | 0.00 | 72 | 1021.6 |
| 20260905195926 | 75 | 247 | 5.0 | 9.0 | 0.00 | 0.00 | 0.00 | 71 | 1021.6 |
| 20260905195424 | 75 | 223 | 5.0 | 9.0 | 0.00 | 0.00 | 0.00 | 70 | 1021.6 |
| 20260905194925 | 75 | 244 | 5.0 | 11.0 | 0.00 | 0.00 | 0.00 | 70 | 1021.7 |
| 20260905194424 | 75 | 279 | 5.0 | 11.0 | 0.00 | 0.00 | 0.00 | 70 | 1021.7 |
| 20260905193922 | 76 | 245 | 6.0 | 10.0 | 0.00 | 0.00 | 0.00 | 69 | 1021.7 |
| 20260905193421 | 76 | 224 | 5.0 | 10.0 | 0.00 | 0.00 | 0.00 | 68 | 1021.7 |
| 20260905192922 | 76 | 245 | 3.0 | 6.0 | 0.00 | 0.00 | 0.00 | 67 | 1021.8 |
| 20260905192422 | 76 | 278 | 2.0 | 7.0 | 0.00 | 0.00 | 0.00 | 67 | 1021.7 |
| 20260905191920 | 77 | 268 | 4.0 | 7.0 | 0.00 | 0.00 | 0.00 | 64 | 1021.7 |
| 20260905191420 | 77 | 135 | 1.0 | 9.0 | 0.00 | 0.00 | 0.00 | 64 | 1021.6 |
| 20260905190919 | 78 | 305 | 4.0 | 10.0 | 0.00 | 0.00 | 0.00 | 65 | 1021.5 |
| 20260905190418 | 78 | 240 | 6.0 | 11.0 | 0.00 | 0.00 | 0.00 | 65 | 1021.5 |
| 20260905190227 | 78 | 252 | 6.0 | 13.0 | 0.00 | 0.00 | 0.00 | 65 | 1021.2 |
| 20260905185418 | 78 | 261 | 7.0 | 13.0 | 0.00 | 0.00 | 0.00 | 64 | 1021.3 |
| 20260905184918 | 78 | 233 | 4.0 | 13.0 | 0.00 | 0.00 | 0.00 | 63 | 1021.2 |
| 20260905184528 | 78 | 220 | 8.0 | 14.0 | 0.00 | 0.00 | 0.00 | 62 | 1021.2 |
| 20260905184456 | 78 | 250 | 5.0 | 14.0 | 0.00 | 0.00 | 0.00 | 62 | 1021.2 |
| 20260905183414 | 78 | 204 | 6.0 | 13.0 | 0.00 | 0.00 | 0.00 | 61 | 1021.2 |
| 20260905182914 | 78 | 219 | 7.0 | 12.0 | 0.00 | 0.00 | 0.00 | 61 | 1021.2 |
| 20260905182411 | 78 | 257 | 7.0 | 12.0 | 0.00 | 0.00 | 0.00 | 59 | 1021.2 |
| 20260905181912 | 78 | 248 | 4.0 | 10.0 | 0.00 | 0.00 | 0.00 | 58 | 1021.1 |
| 20260905181726 | 78 | 223 | 6.0 | 10.0 | 0.00 | 0.00 | 0.00 | 59 | 1021.1 |
| 20260905180909 | 78 | 245 | 6.0 | 11.0 | 0.00 | 0.00 | 0.00 | 59 | 1021.0 |
| 20260905180411 | 79 | 238 | 7.0 | 11.0 | 0.00 | 0.00 | 0.00 | 59 | 1020.9 |
| 20260905175910 | 79 | 219 | 5.0 | 12.0 | 0.00 | 0.00 | 0.00 | 58 | 1020.9 |
| 20260905175410 | 79 | 244 | 6.0 | 12.0 | 0.00 | 0.00 | 0.00 | 58 | 1021.0 |
| 20260905174909 | 79 | 228 | 6.0 | 11.0 | 0.00 | 0.00 | 0.00 | 57 | 1020.9 |
| 20260905174408 | 80 | 237 | 7.0 | 14.0 | 0.00 | 0.00 | 0.00 | 56 | 1020.9 |
| 20260905174219 | 80 | 240 | 5.0 | 14.0 | 0.00 | 0.00 | 0.00 | 54 | 1020.9 |
| 20260905173715 | 80 | 245 | 6.0 | 12.0 | 0.00 | 0.00 | 0.00 | 53 | 1020.8 |
| 20260905172906 | 80 | 213 | 5.0 | 12.0 | 0.00 | 0.00 | 0.00 | 52 | 1020.8 |
| 20260905172403 | 80 | 250 | 6.0 | 11.0 | 0.00 | 0.00 | 0.00 | 52 | 1020.7 |
| 20260905171903 | 80 | 235 | 6.0 | 11.0 | 0.00 | 0.00 | 0.00 | 52 | 1020.7 |
| 20260905171720 | 80 | 254 | 5.0 | 10.0 | 0.00 | 0.00 | 0.00 | 51 | 1020.6 |
| 20260905170902 | 81 | 192 | 5.0 | 11.0 | 0.00 | 0.00 | 0.00 | 51 | 1020.7 |
| 20260905170406 | 81 | 224 | 5.0 | 11.0 | 0.00 | 0.00 | 0.00 | 51 | 1020.6 |
| 20260905165902 | 81 | 264 | 5.0 | 9.0 | 0.00 | 0.00 | 0.00 | 52 | 1020.7 |
| 20260905165715 | 81 | 257 | 3.0 | 9.0 | 0.00 | 0.00 | 0.00 | 52 | 1020.7 |
| 20260905164902 | 82 | 228 | 5.0 | 9.0 | 0.00 | 0.00 | 0.00 | 51 | 1020.7 |
| 20260905164712 | 82 | 221 | 4.0 | 9.0 | 0.00 | 0.00 | 0.00 | 50 | 1020.7 |
| 20260905163902 | 83 | 262 | 5.0 | 9.0 | 0.00 | 0.00 | 0.00 | 48 | 1020.6 |
| 20260905163403 | 83 | 261 | 4.0 | 10.0 | 0.00 | 0.00 | 0.00 | 46 | 1020.5 |
| 20260905162903 | 84 | 243 | 3.0 | 13.0 | 0.00 | 0.00 | 0.00 | 47 | 1020.6 |
| 20260905162403 | 84 | 271 | 3.0 | 13.0 | 0.00 | 0.00 | 0.00 | 49 | 1020.5 |
| 20260905161902 | 85 | 216 | 6.0 | 12.0 | 0.00 | 0.00 | 0.00 | 48 | 1020.5 |
| 20260905161403 | 85 | 292 | 6.0 | 13.0 | 0.00 | 0.00 | 0.00 | 47 | 1020.6 |
| 20260905160902 | 85 | 275 | 4.0 | 13.0 | 0.00 | 0.00 | 0.00 | 46 | 1020.5 |
| 20260905160534 | 86 | 292 | 7.0 | 14.0 | 0.00 | 0.00 | 0.00 | 46 | 1020.5 |
| 20260905160451 | 85 | 289 | 6.0 | 13.0 | 0.00 | 0.00 | 0.00 | 46 | 1020.5 |
| 20260905155403 | 86 | 293 | 5.0 | 14.0 | 0.00 | 0.00 | 0.00 | 46 | 1020.5 |
| 20260905154903 | 86 | 290 | 6.0 | 14.0 | 0.00 | 0.00 | 0.00 | 45 | 1020.5 |
| 20260905154400 | 86 | 283 | 5.0 | 15.0 | 0.00 | 0.00 | 0.00 | 46 | 1020.5 |
| 20260905154217 | 86 | 279 | 7.0 | 15.0 | 0.00 | 0.00 | 0.00 | 46 | 1020.5 |
| 20260905153359 | 86 | 290 | 8.0 | 14.0 | 0.00 | 0.00 | 0.00 | 46 | 1020.5 |
| 20260905152858 | 86 | 261 | 7.0 | 14.0 | 0.00 | 0.00 | 0.00 | 47 | 1020.5 |
| 20260905152358 | 86 | 289 | 8.0 | 14.0 | 0.00 | 0.00 | 0.00 | 48 | 1020.5 |
| 20260905151859 | 87 | 351 | 8.0 | 14.0 | 0.00 | 0.00 | 0.00 | 48 | 1020.4 |
| 20260905151357 | 87 | 285 | 7.0 | 18.0 | 0.00 | 0.00 | 0.00 | 48 | 1020.4 |
| 20260905150856 | 87 | 306 | 8.0 | 18.0 | 0.00 | 0.00 | 0.00 | 48 | 1020.4 |
| 20260905150703 | 87 | 0 | 7.0 | 15.0 | 0.00 | 0.00 | 0.00 | 49 | 1020.4 |
| 20260905150204 | 87 | 333 | 7.0 | 15.0 | 0.00 | 0.00 | 0.00 | 49 | 1020.4 |
| 20260905145400 | 87 | 295 | 7.0 | 15.0 | 0.00 | 0.00 | 0.00 | 48 | 1020.3 |
| 20260905144854 | 87 | 290 | 8.0 | 15.0 | 0.00 | 0.00 | 0.00 | 48 | 1020.3 |
| 20260905144709 | 88 | 279 | 6.0 | 17.0 | 0.00 | 0.00 | 0.00 | 47 | 1020.4 |
| 20260905143854 | 88 | 290 | 7.0 | 17.0 | 0.00 | 0.00 | 0.00 | 47 | 1020.4 |
| 20260905143356 | 88 | 292 | 6.0 | 14.0 | 0.00 | 0.00 | 0.00 | 48 | 1020.4 |
| 20260905142850 | 88 | 312 | 8.0 | 14.0 | 0.00 | 0.00 | 0.00 | 47 | 1020.4 |
| 20260905142350 | 88 | 290 | 5.0 | 11.0 | 0.00 | 0.00 | 0.00 | 47 | 1020.6 |
| 20260905142019 | 88 | 310 | 9.0 | 20.0 | 0.00 | 0.00 | 0.00 | 48 | 1020.6 |
| 20260905141936 | 88 | 265 | 4.0 | 15.0 | 0.00 | 0.00 | 0.00 | 49 | 1020.6 |
| 20260905141210 | 88 | 307 | 7.0 | 20.0 | 0.00 | 0.00 | 0.00 | 46 | 1020.4 |
| 20260905140348 | 88 | 279 | 8.0 | 15.0 | 0.00 | 0.00 | 0.00 | 48 | 1020.6 |
| 20260905135847 | 88 | 286 | 5.0 | 16.0 | 0.00 | 0.00 | 0.00 | 50 | 1020.7 |
| 20260905135652 | 88 | 289 | 9.0 | 16.0 | 0.00 | 0.00 | 0.00 | 50 | 1020.6 |
| 20260905134846 | 88 | 314 | 8.0 | 16.0 | 0.00 | 0.00 | 0.00 | 49 | 1020.6 |
| 20260905134654 | 88 | 312 | 7.0 | 16.0 | 0.00 | 0.00 | 0.00 | 49 | 1020.7 |
| 20260905133844 | 88 | 299 | 9.0 | 14.0 | 0.00 | 0.00 | 0.00 | 48 | 1020.6 |
| 20260905133343 | 89 | 347 | 5.0 | 12.0 | 0.00 | 0.00 | 0.00 | 50 | 1020.6 |
| 20260905132844 | 89 | 227 | 6.0 | 12.0 | 0.00 | 0.00 | 0.00 | 49 | 1020.8 |
| 20260905132656 | 89 | 283 | 3.0 | 16.0 | 0.00 | 0.00 | 0.00 | 50 | 1020.8 |
| 20260905131844 | 88 | 309 | 7.0 | 16.0 | 0.00 | 0.00 | 0.00 | 49 | 1020.8 |
| 20260905131341 | 88 | 303 | 6.0 | 13.0 | 0.00 | 0.00 | 0.00 | 50 | 1020.9 |
| 20260905130840 | 88 | 300 | 4.0 | 13.0 | 0.00 | 0.00 | 0.00 | 50 | 1020.9 |
| 20260905130340 | 88 | 334 | 7.0 | 14.0 | 0.00 | 0.00 | 0.00 | 50 | 1021.0 |
| 20260905125841 | 88 | 259 | 6.0 | 14.0 | 0.00 | 0.00 | 0.00 | 50 | 1021.0 |
| 20260905125338 | 88 | 314 | 6.0 | 13.0 | 0.00 | 0.00 | 0.00 | 48 | 1021.0 |
| 20260905124838 | 88 | 348 | 6.0 | 13.0 | 0.00 | 0.00 | 0.00 | 50 | 1021.1 |
| 20260905124644 | 88 | 310 | 8.0 | 14.0 | 0.00 | 0.00 | 0.00 | 49 | 1021.0 |
| 20260905123839 | 88 | 336 | 8.0 | 15.0 | 0.00 | 0.00 | 0.00 | 47 | 1021.0 |
| 20260905123336 | 89 | 295 | 9.0 | 15.0 | 0.00 | 0.00 | 0.00 | 43 | 1021.1 |
| 20260905123144 | 89 | 312 | 5.0 | 13.0 | 0.00 | 0.00 | 0.00 | 44 | 1021.2 |
| 20260905122333 | 88 | 321 | 7.0 | 15.0 | 0.00 | 0.00 | 0.00 | 46 | 1021.2 |
| 20260905121833 | 88 | 296 | 8.0 | 15.0 | 0.00 | 0.00 | 0.00 | 45 | 1021.2 |
| 20260905121334 | 89 | 300 | 9.0 | 12.0 | 0.00 | 0.00 | 0.00 | 41 | 1021.1 |
| 20260905120834 | 88 | 314 | 5.0 | 16.0 | 0.00 | 0.00 | 0.00 | 44 | 1021.2 |
| 20260905120336 | 88 | 323 | 9.0 | 16.0 | 0.00 | 0.00 | 0.00 | 44 | 1021.1 |
| 20260905115833 | 89 | 327 | 5.0 | 13.0 | 0.00 | 0.00 | 0.00 | 40 | 1021.2 |
| 20260905115636 | 89 | 259 | 6.0 | 12.0 | 0.00 | 0.00 | 0.00 | 41 | 1021.2 |
| 20260905114832 | 89 | 320 | 5.0 | 10.0 | 0.00 | 0.00 | 0.00 | 42 | 1021.2 |
| 20260905114332 | 88 | 357 | 2.0 | 13.0 | 0.00 | 0.00 | 0.00 | 42 | 1021.2 |
| 20260905113830 | 88 | 326 | 7.0 | 13.0 | 0.00 | 0.00 | 0.00 | 39 | 1021.2 |
| 20260905113331 | 88 | 313 | 6.0 | 15.0 | 0.00 | 0.00 | 0.00 | 44 | 1021.2 |
| 20260905112830 | 89 | 233 | 9.0 | 15.0 | 0.00 | 0.00 | 0.00 | 41 | 1021.3 |
| 20260905112331 | 88 | 324 | 4.0 | 12.0 | 0.00 | 0.00 | 0.00 | 40 | 1021.2 |
| 20260905111831 | 88 | 324 | 5.0 | 10.0 | 0.00 | 0.00 | 0.00 | 42 | 1021.2 |
| 20260905111332 | 88 | 264 | 6.0 | 10.0 | 0.00 | 0.00 | 0.00 | 42 | 1021.3 |
| 20260905110831 | 88 | 276 | 4.0 | 9.0 | 0.00 | 0.00 | 0.00 | 42 | 1021.2 |
| 20260905110330 | 88 | 324 | 5.0 | 10.0 | 0.00 | 0.00 | 0.00 | 42 | 1021.2 |
| 20260905105830 | 88 | 348 | 5.0 | 11.0 | 0.00 | 0.00 | 0.00 | 42 | 1021.3 |
| 20260905105639 | 88 | 288 | 6.0 | 11.0 | 0.00 | 0.00 | 0.00 | 42 | 1021.2 |
| 20260905104829 | 88 | 343 | 5.0 | 11.0 | 0.00 | 0.00 | 0.00 | 43 | 1021.3 |
| 20260905104330 | 87 | 269 | 4.0 | 12.0 | 0.00 | 0.00 | 0.00 | 44 | 1021.3 |
| 20260905103829 | 87 | 265 | 6.0 | 13.0 | 0.00 | 0.00 | 0.00 | 43 | 1021.4 |
| 20260905103431 | 87 | 324 | 6.0 | 15.0 | 0.00 | 0.00 | 0.00 | 43 | 1021.4 |
| 20260905103409 | 87 | 327 | 6.0 | 13.0 | 0.00 | 0.00 | 0.00 | 43 | 1021.4 |
| 20260905102329 | 86 | 290 | 6.0 | 15.0 | 0.00 | 0.00 | 0.00 | 44 | 1021.6 |
| 20260905101829 | 86 | 321 | 7.0 | 15.0 | 0.00 | 0.00 | 0.00 | 44 | 1021.6 |
| 20260905101329 | 86 | 300 | 7.0 | 15.0 | 0.00 | 0.00 | 0.00 | 44 | 1021.5 |
| 20260905100829 | 86 | 320 | 9.0 | 14.0 | 0.00 | 0.00 | 0.00 | 45 | 1021.6 |
| 20260905100329 | 86 | 331 | 8.0 | 14.0 | 0.00 | 0.00 | 0.00 | 46 | 1021.6 |
| 20260905095829 | 86 | 302 | 9.0 | 18.0 | 0.00 | 0.00 | 0.00 | 46 | 1021.7 |
| 20260905095329 | 86 | 329 | 7.0 | 18.0 | 0.00 | 0.00 | 0.00 | 45 | 1021.6 |
| 20260905094831 | 87 | 316 | 8.0 | 14.0 | 0.00 | 0.00 | 0.00 | 44 | 1021.6 |
| 20260905094328 | 87 | 316 | 6.0 | 11.0 | 0.00 | 0.00 | 0.00 | 44 | 1021.6 |
| 20260905093828 | 87 | 269 | 6.0 | 12.0 | 0.00 | 0.00 | 0.00 | 44 | 1021.6 |
| 20260905093328 | 86 | 269 | 4.0 | 12.0 | 0.00 | 0.00 | 0.00 | 45 | 1021.5 |
| 20260905092831 | 86 | 255 | 6.0 | 14.0 | 0.00 | 0.00 | 0.00 | 44 | 1021.6 |
| 20260905092328 | 86 | 247 | 6.0 | 14.0 | 0.00 | 0.00 | 0.00 | 44 | 1021.5 |
| 20260905091828 | 86 | 250 | 7.0 | 13.0 | 0.00 | 0.00 | 0.00 | 44 | 1021.5 |
| 20260905091327 | 86 | 237 | 7.0 | 13.0 | 0.00 | 0.00 | 0.00 | 42 | 1021.4 |
| 20260905090828 | 86 | 300 | 5.0 | 12.0 | 0.00 | 0.00 | 0.00 | 43 | 1021.4 |
| 20260905090327 | 85 | 240 | 7.0 | 15.0 | 0.00 | 0.00 | 0.00 | 47 | 1021.3 |
| 20260905085827 | 84 | 190 | 7.0 | 15.0 | 0.00 | 0.00 | 0.00 | 50 | 1021.3 |
| 20260905085327 | 84 | 217 | 8.0 | 13.0 | 0.00 | 0.00 | 0.00 | 50 | 1021.4 |
| 20260905084827 | 84 | 178 | 8.0 | 13.0 | 0.00 | 0.00 | 0.00 | 51 | 1021.3 |
| 20260905084327 | 84 | 254 | 6.0 | 18.0 | 0.00 | 0.00 | 0.00 | 51 | 1021.3 |
| 20260905084129 | 83 | 247 | 5.0 | 18.0 | 0.00 | 0.00 | 0.00 | 52 | 1021.4 |
| 20260905083327 | 83 | 182 | 8.0 | 14.0 | 0.00 | 0.00 | 0.00 | 51 | 1021.2 |
| 20260905083131 | 84 | 254 | 6.0 | 12.0 | 0.00 | 0.00 | 0.00 | 50 | 1021.2 |
| 20260905082327 | 84 | 171 | 6.0 | 11.0 | 0.00 | 0.00 | 0.00 | 48 | 1021.2 |
| 20260905081826 | 83 | 204 | 3.0 | 15.0 | 0.00 | 0.00 | 0.00 | 49 | 1021.2 |
| 20260905081326 | 83 | 193 | 6.0 | 15.0 | 0.00 | 0.00 | 0.00 | 47 | 1021.1 |
| 20260905080826 | 83 | 161 | 8.0 | 12.0 | 0.00 | 0.00 | 0.00 | 47 | 1021.1 |
| 20260905080326 | 82 | 179 | 7.0 | 14.0 | 0.00 | 0.00 | 0.00 | 48 | 1021.1 |
| 20260905075828 | 82 | 190 | 5.0 | 14.0 | 0.00 | 0.00 | 0.00 | 47 | 1021.1 |
| 20260905075325 | 82 | 189 | 7.0 | 13.0 | 0.00 | 0.00 | 0.00 | 47 | 1021.1 |
| 20260905075153 | 81 | 209 | 7.0 | 12.0 | 0.00 | 0.00 | 0.00 | 48 | 1021.1 |
| 20260905074328 | 81 | 220 | 5.0 | 12.0 | 0.00 | 0.00 | 0.00 | 50 | 1021.1 |
| 20260905073829 | 81 | 259 | 4.0 | 10.0 | 0.00 | 0.00 | 0.00 | 50 | 1021.2 |
| 20260905073325 | 80 | 217 | 5.0 | 12.0 | 0.00 | 0.00 | 0.00 | 50 | 1021.1 |
| 20260905072825 | 80 | 195 | 6.0 | 12.0 | 0.00 | 0.00 | 0.00 | 50 | 1021.1 |
| 20260905072634 | 80 | 204 | 6.0 | 11.0 | 0.00 | 0.00 | 0.00 | 49 | 1021.1 |
| 20260905071826 | 80 | 247 | 4.0 | 13.0 | 0.00 | 0.00 | 0.00 | 50 | 1021.1 |
| 20260905071325 | 80 | 209 | 7.0 | 13.0 | 0.00 | 0.00 | 0.00 | 49 | 1021.1 |
| 20260905070825 | 80 | 252 | 5.0 | 11.0 | 0.00 | 0.00 | 0.00 | 50 | 1020.9 |
| 20260905070636 | 79 | 185 | 3.0 | 10.0 | 0.00 | 0.00 | 0.00 | 51 | 1021.0 |
| 20260905065824 | 79 | 248 | 5.0 | 11.0 | 0.00 | 0.00 | 0.00 | 50 | 1021.0 |
| 20260905065324 | 78 | 243 | 6.0 | 17.0 | 0.00 | 0.00 | 0.00 | 52 | 1021.0 |
| 20260905064824 | 78 | 202 | 9.0 | 17.0 | 0.00 | 0.00 | 0.00 | 53 | 1021.0 |
| 20260905064324 | 77 | 185 | 9.0 | 16.0 | 0.00 | 0.00 | 0.00 | 53 | 1020.9 |
| 20260905063824 | 75 | 233 | 5.0 | 10.0 | 0.00 | 0.00 | 0.00 | 57 | 1020.9 |
| 20260905063326 | 74 | 197 | 0.0 | 3.0 | 0.00 | 0.00 | 0.00 | 60 | 1020.9 |
| 20260905062824 | 73 | 197 | 0.0 | 4.0 | 0.00 | 0.00 | 0.00 | 62 | 1021.0 |
| 20260905062323 | 72 | 247 | 1.0 | 4.0 | 0.00 | 0.00 | 0.00 | 61 | 1020.9 |
| 20260905062130 | 72 | 66 | 1.0 | 4.0 | 0.00 | 0.00 | 0.00 | 60 | 1020.8 |
| 20260905061323 | 72 | 140 | 1.0 | 3.0 | 0.00 | 0.00 | 0.00 | 62 | 1020.9 |